createdAt,value
2019-01-13T00:02:00.691Z,6.80
2019-01-13T00:04:39.609Z,6.80
2019-01-13T00:07:11.465Z,6.70
2019-01-13T00:09:42.025Z,6.70
2019-01-13T00:12:12.998Z,6.70
2019-01-13T00:14:59.087Z,6.70
2019-01-13T00:17:40.114Z,6.70
2019-01-13T00:20:41.380Z,6.70
2019-01-13T00:23:29.637Z,6.80
2019-01-13T00:26:14.295Z,6.80
2019-01-13T00:28:53.537Z,6.80
2019-01-13T00:31:57.379Z,6.80
2019-01-13T00:34:25.823Z,6.80
2019-01-13T00:37:07.508Z,6.80
2019-01-13T00:42:54.972Z,6.80
2019-01-13T00:45:47.087Z,6.80
2019-01-13T00:48:28.813Z,6.80
2019-01-13T00:51:03.238Z,6.80
2019-01-13T00:53:33.968Z,6.80
2019-01-13T00:56:06.447Z,6.80
2019-01-13T00:58:48.478Z,6.80
2019-01-13T01:01:20.886Z,6.80
2019-01-13T01:08:59.939Z,6.80
2019-01-13T01:12:15.362Z,6.80
2019-01-13T01:31:21.904Z,6.80
2019-01-13T01:34:24.617Z,6.80
2019-01-13T01:36:59.917Z,6.80
2019-01-13T01:39:41.863Z,6.80
2019-01-13T01:42:16.326Z,6.80
2019-01-13T01:44:52.502Z,6.90
2019-01-13T01:47:26.721Z,6.80
2019-01-13T01:50:25.094Z,6.90
2019-01-13T01:53:01.064Z,6.90
2019-01-13T01:55:40.445Z,6.90
2019-01-13T01:58:12.451Z,6.90
2019-01-13T02:00:43.388Z,6.90
2019-01-13T02:03:13.913Z,6.90
2019-01-13T02:05:45.904Z,6.90
2019-01-13T02:08:16.501Z,6.90
2019-01-13T02:10:48.566Z,6.90
2019-01-13T02:13:19.347Z,6.90
2019-01-13T02:15:49.878Z,6.90
2019-01-13T02:18:20.399Z,6.90
2019-01-13T02:21:05.111Z,7.00
2019-01-13T02:23:23.173Z,6.90
2019-01-13T02:25:55.820Z,7.00
2019-01-13T02:28:26.703Z,6.90
2019-01-13T02:30:58.234Z,6.90
2019-01-13T02:33:28.904Z,7.00
2019-01-13T02:35:59.331Z,7.00
2019-01-13T02:38:29.789Z,7.00
2019-01-13T02:41:00.427Z,7.00
2019-01-13T02:43:33.505Z,6.90
2019-01-13T02:46:06.034Z,7.00
2019-01-13T02:48:40.907Z,7.00
2019-01-13T02:51:11.785Z,7.00
2019-01-13T02:53:42.384Z,7.00
2019-01-13T02:56:12.827Z,7.00
2019-01-13T02:58:43.224Z,7.00
2019-01-13T03:01:13.746Z,7.00
2019-01-13T03:03:44.154Z,7.10
2019-01-13T03:06:14.701Z,7.10
2019-01-13T03:08:45.187Z,7.10
2019-01-13T03:11:17.100Z,7.10
2019-01-13T03:13:48.741Z,7.10
2019-01-13T03:16:24.325Z,7.10
2019-01-13T03:18:54.516Z,7.10
2019-01-13T03:21:33.114Z,7.10
2019-01-13T03:24:06.375Z,7.10
2019-01-13T03:26:40.538Z,7.10
2019-01-13T03:29:11.064Z,7.10
2019-01-13T03:31:41.562Z,7.10
2019-01-13T03:34:12.278Z,7.10
2019-01-13T03:36:44.182Z,7.10
2019-01-13T03:39:15.211Z,7.10
2019-01-13T03:41:49.069Z,7.10
2019-01-13T03:44:19.623Z,7.20
2019-01-13T03:46:52.746Z,7.10
2019-01-13T03:49:32.814Z,7.20
2019-01-13T03:52:06.530Z,7.20
2019-01-13T03:54:37.773Z,7.20
2019-01-13T03:57:09.747Z,7.20
2019-01-13T03:59:40.597Z,7.20
2019-01-13T04:02:14.353Z,7.20
2019-01-13T04:04:45.049Z,7.10
2019-01-13T04:07:16.926Z,7.10
2019-01-13T04:09:53.449Z,7.10
2019-01-13T04:12:23.930Z,7.10
2019-01-13T04:14:54.487Z,7.10
2019-01-13T04:17:28.747Z,7.10
2019-01-13T04:19:59.684Z,7.10
2019-01-13T04:22:30.138Z,7.10
2019-01-13T04:25:00.828Z,7.10
2019-01-13T04:27:31.368Z,7.10
2019-01-13T04:30:01.850Z,7.10
2019-01-13T04:32:32.498Z,7.10
2019-01-13T04:35:09.287Z,7.10
2019-01-13T04:37:42.188Z,7.10
2019-01-13T04:40:18.917Z,7.10
2019-01-13T04:42:49.576Z,7.10
2019-01-13T04:45:22.812Z,7.00
2019-01-13T04:47:55.464Z,7.00
2019-01-13T04:50:27.195Z,7.00
2019-01-13T04:52:59.664Z,7.00
2019-01-13T04:55:30.855Z,7.10
2019-01-13T04:58:01.329Z,7.10
2019-01-13T05:00:31.972Z,7.00
2019-01-13T05:03:10.160Z,7.00
2019-01-13T05:05:45.909Z,7.00
2019-01-13T05:08:21.270Z,7.00
2019-01-13T05:10:52.868Z,7.00
2019-01-13T05:13:25.137Z,7.10
2019-01-13T05:15:57.112Z,7.10
2019-01-13T05:18:29.585Z,7.00
2019-01-13T05:21:01.723Z,7.00
2019-01-13T05:23:34.092Z,7.10
2019-01-13T05:26:07.706Z,7.10
2019-01-13T05:28:48.811Z,7.00
2019-01-13T05:31:16.988Z,7.00
2019-01-13T05:33:53.312Z,7.00
2019-01-13T05:36:27.026Z,7.10
2019-01-13T05:39:05.921Z,7.10
2019-01-13T05:41:39.552Z,7.10
2019-01-13T05:44:12.631Z,7.10
2019-01-13T05:46:43.081Z,7.10
2019-01-13T05:49:14.072Z,7.10
2019-01-13T05:51:44.686Z,7.10
2019-01-13T05:54:18.060Z,7.10
2019-01-13T05:56:49.936Z,7.10
2019-01-13T05:59:23.660Z,7.10
2019-01-13T06:01:57.639Z,7.10
2019-01-13T06:04:28.960Z,7.10
2019-01-13T06:07:03.902Z,7.10
2019-01-13T06:09:37.171Z,7.10
2019-01-13T06:12:09.700Z,7.10
2019-01-13T06:14:49.761Z,7.10
2019-01-13T06:17:26.597Z,7.10
2019-01-13T06:20:00.380Z,7.10
2019-01-13T06:22:32.667Z,7.10
2019-01-13T06:25:06.446Z,7.10
2019-01-13T06:27:37.069Z,7.10
2019-01-13T06:30:12.805Z,7.10
2019-01-13T06:32:45.077Z,7.10
2019-01-13T06:35:17.381Z,7.20
2019-01-13T06:37:54.274Z,7.10
2019-01-13T06:40:25.136Z,7.10
2019-01-13T06:42:57.587Z,7.10
2019-01-13T06:45:31.494Z,7.20
2019-01-13T06:48:02.262Z,7.10
2019-01-13T06:50:39.986Z,7.10
2019-01-13T06:53:13.378Z,7.10
2019-01-13T06:55:47.222Z,7.10
2019-01-13T06:58:20.939Z,7.10
2019-01-13T07:00:55.095Z,7.10
2019-01-13T07:03:25.614Z,7.10
2019-01-13T07:05:56.202Z,7.10
2019-01-13T07:08:29.199Z,7.10
2019-01-13T07:11:02.400Z,7.10
2019-01-13T07:13:34.485Z,7.10
2019-01-13T07:16:05.099Z,7.10
2019-01-13T07:18:43.156Z,7.10
2019-01-13T07:21:18.661Z,7.10
2019-01-13T07:23:56.271Z,7.10
2019-01-13T07:26:36.607Z,7.10
2019-01-13T07:29:22.840Z,7.10
2019-01-13T07:31:59.406Z,7.10
2019-01-13T07:34:30.118Z,7.10
2019-01-13T07:37:01.055Z,7.10
2019-01-13T07:39:31.603Z,7.10
2019-01-13T07:42:04.034Z,7.10
2019-01-13T07:44:44.642Z,7.10
2019-01-13T07:47:19.143Z,7.10
2019-01-13T07:49:54.501Z,7.10
2019-01-13T07:52:33.722Z,7.10
2019-01-13T07:55:33.447Z,7.10
2019-01-13T07:58:25.993Z,7.10
2019-01-13T08:01:13.498Z,7.10
2019-01-13T08:03:59.350Z,7.10
2019-01-13T08:06:34.208Z,7.10
2019-01-13T08:09:14.274Z,7.10
2019-01-13T08:11:50.312Z,7.10
2019-01-13T08:14:32.422Z,7.10
2019-01-13T08:17:10.155Z,7.10
2019-01-13T08:19:41.040Z,7.10
2019-01-13T08:22:14.594Z,7.10
2019-01-13T08:24:58.316Z,7.10
2019-01-13T08:27:41.457Z,7.20
2019-01-13T08:30:24.282Z,7.20
2019-01-13T08:33:01.157Z,7.20
2019-01-13T08:35:35.031Z,7.20
2019-01-13T08:38:13.937Z,7.20
2019-01-13T08:40:56.060Z,7.20
2019-01-13T08:43:48.717Z,7.20
2019-01-13T08:46:35.727Z,7.20
2019-01-13T08:49:10.766Z,7.20
2019-01-13T08:51:51.837Z,7.20
2019-01-13T08:54:42.754Z,7.20
2019-01-13T08:57:16.851Z,7.30
2019-01-13T09:00:01.947Z,7.30
2019-01-13T09:02:40.824Z,7.30
2019-01-13T09:05:13.729Z,7.30
2019-01-13T09:07:44.301Z,7.30
2019-01-13T09:10:21.567Z,7.20
2019-01-13T09:13:01.302Z,7.20
2019-01-13T09:15:33.575Z,7.20
2019-01-13T09:18:11.266Z,7.20
2019-01-13T09:20:58.376Z,7.20
2019-01-13T09:23:28.935Z,7.20
2019-01-13T09:26:02.241Z,7.20
2019-01-13T09:28:43.259Z,7.20
2019-01-13T09:31:18.864Z,7.20
2019-01-13T09:34:07.091Z,7.20
2019-01-13T09:36:49.447Z,7.20
2019-01-13T09:39:22.130Z,7.20
2019-01-13T09:42:02.939Z,7.30
2019-01-13T09:44:48.585Z,7.30
2019-01-13T09:47:18.555Z,7.30
2019-01-13T09:49:52.171Z,7.40
2019-01-13T09:52:27.098Z,7.40
2019-01-13T09:55:02.587Z,7.30
2019-01-13T09:57:46.388Z,7.30
2019-01-13T10:00:30.591Z,7.40
2019-01-13T10:03:03.625Z,7.30
2019-01-13T10:05:37.532Z,7.30
2019-01-13T10:08:19.981Z,7.40
2019-01-13T10:10:53.252Z,7.40
2019-01-13T10:13:36.250Z,7.40
2019-01-13T10:16:13.982Z,7.40
2019-01-13T10:18:49.948Z,7.50
2019-01-13T10:21:20.538Z,7.50
2019-01-13T10:23:56.038Z,7.50
2019-01-13T10:26:34.198Z,7.50
2019-01-13T10:29:15.620Z,7.50
2019-01-13T10:31:46.378Z,7.50
2019-01-13T10:34:19.362Z,7.50
2019-01-13T10:36:54.578Z,7.40
2019-01-13T10:39:25.516Z,7.40
2019-01-13T10:41:56.318Z,7.40
2019-01-13T10:44:40.348Z,7.40
2019-01-13T10:47:13.144Z,7.40
2019-01-13T10:49:44.900Z,7.40
2019-01-13T10:52:19.986Z,7.40
2019-01-13T10:54:56.247Z,7.40
2019-01-13T10:57:48.916Z,7.40
2019-01-13T11:00:37.801Z,7.40
2019-01-13T11:03:21.153Z,7.40
2019-01-13T11:05:56.398Z,7.40
2019-01-13T11:08:30.554Z,7.40
2019-01-13T11:11:03.332Z,7.30
2019-01-13T11:13:40.651Z,7.40
2019-01-13T11:16:13.631Z,7.40
2019-01-13T11:18:46.424Z,7.30
2019-01-13T11:21:19.022Z,7.30
2019-01-13T11:23:49.881Z,7.20
2019-01-13T11:26:20.640Z,7.20
2019-01-13T11:28:51.678Z,7.10
2019-01-13T11:31:26.276Z,7.20
2019-01-13T11:34:23.611Z,7.10
2019-01-13T11:37:08.103Z,7.10
2019-01-13T11:42:41.107Z,7.00
2019-01-13T11:45:54.569Z,7.00
2019-01-13T11:48:32.448Z,7.00
2019-01-13T11:51:17.163Z,7.00
2019-01-13T11:53:52.530Z,7.00
2019-01-13T11:56:39.478Z,7.00
2019-01-13T11:59:25.674Z,7.00
2019-01-13T12:02:12.394Z,7.10
2019-01-13T12:04:54.636Z,7.10
2019-01-13T12:07:44.245Z,7.20
2019-01-13T12:11:01.969Z,7.20
2019-01-13T12:13:56.965Z,7.20
2019-01-13T12:16:32.224Z,7.30
2019-01-13T12:19:13.141Z,7.30
2019-01-13T12:21:48.916Z,7.30
2019-01-13T12:27:36.271Z,7.40
2019-01-13T12:30:27.636Z,7.40
2019-01-13T12:33:14.577Z,7.50
2019-01-13T12:36:43.575Z,7.50
2019-01-13T12:39:29.989Z,7.50
2019-01-13T12:42:12.212Z,7.60
2019-01-13T12:45:05.561Z,7.60
2019-01-13T12:48:00.974Z,7.60
2019-01-13T12:52:30.730Z,7.60
2019-01-13T12:54:07.727Z,7.70
2019-01-13T12:56:46.140Z,7.70
2019-01-13T12:59:21.906Z,7.80
2019-01-13T13:02:00.730Z,7.80
2019-01-13T13:04:37.311Z,7.80
2019-01-13T13:07:16.750Z,7.80
2019-01-13T13:09:53.261Z,7.80
2019-01-13T13:12:28.474Z,7.80
2019-01-13T13:15:04.305Z,7.90
2019-01-13T13:17:37.092Z,7.90
2019-01-13T13:20:22.925Z,7.90
2019-01-13T13:22:56.861Z,7.90
2019-01-13T13:25:31.813Z,7.90
2019-01-13T13:28:01.146Z,7.90
2019-01-13T13:30:42.296Z,8.00
2019-01-13T13:33:12.999Z,8.00
2019-01-13T13:35:43.736Z,8.00
2019-01-13T13:38:17.503Z,8.10
2019-01-13T13:40:48.263Z,8.10
2019-01-13T13:43:19.074Z,8.10
2019-01-13T13:45:53.893Z,8.10
2019-01-13T13:48:25.362Z,8.10
2019-01-13T13:51:10.754Z,8.20
2019-01-13T13:54:08.538Z,8.10
2019-01-13T13:56:53.763Z,8.10
2019-01-13T13:59:31.507Z,8.10
2019-01-13T14:02:10.269Z,8.10
2019-01-13T14:04:49.887Z,8.10
2019-01-13T14:07:30.640Z,8.10
2019-01-13T14:10:16.185Z,8.10
2019-01-13T14:13:05.138Z,8.10
2019-01-13T14:15:39.929Z,8.10
2019-01-13T14:18:19.418Z,8.20
2019-01-13T14:21:08.655Z,8.20
2019-01-13T14:23:43.016Z,8.20
2019-01-13T14:26:17.151Z,8.30
2019-01-13T14:28:53.488Z,8.30
2019-01-13T14:31:30.014Z,8.40
2019-01-13T14:34:03.363Z,8.40
2019-01-13T14:36:49.232Z,8.40
2019-01-13T14:39:22.141Z,8.40
2019-01-13T14:42:08.373Z,8.50
2019-01-13T14:44:44.554Z,8.40
2019-01-13T14:47:26.334Z,8.50
2019-01-13T14:50:19.088Z,8.50
2019-01-13T14:53:01.690Z,8.50
2019-01-13T14:57:32.451Z,8.50
2019-01-13T15:03:03.640Z,8.50
2019-01-13T15:05:32.374Z,8.50
2019-01-13T15:08:07.010Z,8.50
2019-01-13T15:11:12.482Z,8.50
2019-01-13T15:20:15.368Z,8.60
2019-01-13T15:23:12.667Z,8.60
2019-01-13T15:25:57.133Z,8.60
2019-01-13T15:28:41.490Z,8.60
2019-01-13T15:31:19.759Z,8.60
2019-01-13T15:36:58.030Z,8.70
2019-01-13T15:39:51.518Z,8.70
2019-01-13T15:42:41.872Z,8.70
2019-01-13T15:46:43.539Z,8.70
2019-01-13T15:49:23.039Z,8.70
2019-01-13T15:52:22.569Z,8.70
2019-01-13T15:55:27.140Z,8.70
2019-01-13T15:58:30.024Z,8.70
2019-01-13T16:02:19.611Z,8.70
2019-01-13T16:05:39.112Z,8.70
2019-01-13T16:08:42.951Z,8.70
2019-01-13T16:11:32.542Z,8.70
2019-01-13T16:14:09.999Z,8.70
2019-01-13T16:17:12.210Z,8.70
2019-01-13T16:19:46.887Z,8.70
2019-01-13T16:22:20.382Z,8.80
2019-01-13T16:24:54.977Z,8.80
2019-01-13T16:28:02.364Z,8.80
2019-01-13T16:31:52.771Z,8.80
2019-01-13T16:34:33.298Z,8.80
2019-01-13T16:37:14.955Z,8.80
2019-01-13T16:40:46.346Z,8.80
2019-01-13T16:45:53.214Z,8.80
2019-01-13T16:47:33.178Z,8.80
2019-01-13T16:50:15.662Z,8.80
2019-01-13T16:53:05.902Z,8.80
2019-01-13T16:59:23.884Z,8.80
2019-01-13T17:02:12.264Z,8.80
2019-01-13T17:04:53.814Z,8.80
2019-01-13T17:07:36.476Z,8.90
2019-01-13T17:10:28.023Z,8.90
2019-01-13T17:13:25.517Z,8.90
2019-01-13T17:16:18.973Z,8.90
2019-01-13T17:19:51.585Z,8.90
2019-01-13T17:22:50.345Z,8.90
2019-01-13T17:25:31.224Z,8.90
2019-01-13T17:29:37.351Z,9.00
2019-01-13T17:31:30.734Z,9.00
2019-01-13T17:34:05.161Z,9.00
2019-01-13T17:36:54.856Z,9.00
2019-01-13T17:39:31.302Z,9.00
2019-01-13T17:42:15.801Z,9.10
2019-01-13T17:44:56.341Z,9.10
2019-01-13T17:55:10.068Z,9.10
2019-01-13T17:57:42.530Z,9.00
2019-01-13T18:00:48.100Z,9.10
2019-01-13T18:04:30.890Z,9.10
2019-01-13T18:24:00.929Z,9.10
2019-01-13T18:26:36.880Z,9.10
2019-01-13T18:29:12.036Z,9.10
2019-01-13T18:31:52.888Z,9.20
2019-01-13T18:34:28.842Z,9.20
2019-01-13T18:37:10.279Z,9.20
2019-01-13T18:39:42.093Z,9.20
2019-01-13T18:42:16.315Z,9.20
2019-01-13T18:44:49.587Z,9.20
2019-01-13T18:47:28.899Z,9.20
2019-01-13T18:50:07.037Z,9.30
2019-01-13T18:52:47.728Z,9.30
2019-01-13T18:55:24.463Z,9.30
2019-01-13T18:58:04.491Z,9.30
2019-01-13T19:00:42.517Z,9.40
2019-01-13T19:03:16.598Z,9.40
2019-01-13T19:05:54.689Z,9.40
2019-01-13T19:08:32.624Z,9.40
2019-01-13T19:11:34.736Z,9.30
2019-01-13T19:14:40.367Z,9.20
2019-01-13T19:17:21.331Z,9.10
2019-01-13T19:20:27.531Z,8.90
2019-01-13T19:23:08.386Z,8.70
2019-01-13T19:25:52.962Z,8.50
2019-01-13T19:28:30.148Z,8.30
2019-01-13T19:31:02.536Z,8.30
2019-01-13T19:33:33.647Z,8.20
2019-01-13T19:36:12.085Z,8.20
2019-01-13T19:38:44.547Z,8.10
2019-01-13T19:41:16.828Z,8.10
2019-01-13T19:43:47.351Z,8.00
2019-01-13T19:46:21.389Z,8.00
2019-01-13T19:48:51.926Z,7.90
2019-01-13T19:51:31.290Z,7.90
2019-01-13T19:54:06.704Z,7.80
2019-01-13T19:56:38.586Z,7.80
2019-01-13T19:59:10.787Z,7.70
2019-01-13T20:01:49.351Z,7.70
2019-01-13T20:04:44.354Z,7.70
2019-01-13T20:07:13.142Z,7.70
2019-01-13T20:09:47.129Z,7.70
2019-01-13T20:12:25.128Z,7.70
2019-01-13T20:14:55.739Z,7.70
2019-01-13T20:17:42.410Z,7.70
2019-01-13T20:20:20.809Z,7.70
2019-01-13T20:23:05.250Z,7.70
2019-01-13T20:25:47.332Z,7.70
2019-01-13T20:28:27.538Z,7.80
2019-01-13T20:31:06.771Z,7.80
2019-01-13T20:33:44.573Z,7.80
2019-01-13T20:36:27.566Z,7.80
2019-01-13T20:39:06.101Z,7.80
2019-01-13T20:41:50.770Z,7.90
2019-01-13T20:44:39.251Z,7.90
2019-01-13T20:47:13.793Z,7.90
2019-01-13T20:49:47.737Z,8.00
2019-01-13T20:52:23.108Z,8.00
2019-01-13T20:54:53.978Z,8.00
2019-01-13T20:57:26.146Z,8.00
2019-01-13T20:59:59.710Z,8.00
2019-01-13T21:02:40.561Z,8.10
2019-01-13T21:05:11.093Z,8.10
2019-01-13T21:07:41.517Z,8.20
2019-01-13T21:10:18.456Z,8.20
2019-01-13T21:12:53.466Z,8.20
2019-01-13T21:18:34.967Z,8.20
2019-01-13T21:21:19.888Z,8.10
2019-01-13T21:23:59.017Z,8.00
2019-01-13T21:26:32.151Z,8.00
2019-01-13T21:29:02.691Z,8.00
2019-01-13T21:31:39.228Z,7.90
2019-01-13T21:34:14.534Z,7.80
2019-01-13T21:36:49.024Z,7.80
2019-01-13T21:39:25.291Z,7.70
2019-01-13T21:41:58.826Z,7.80
2019-01-13T21:44:35.067Z,7.80
2019-01-13T21:47:17.349Z,7.80
2019-01-13T21:49:47.781Z,7.80
2019-01-13T21:52:34.281Z,7.80
2019-01-13T21:55:13.658Z,7.80
2019-01-13T21:57:48.654Z,7.80
2019-01-13T22:00:33.345Z,7.80
2019-01-13T22:03:05.816Z,7.80
2019-01-13T22:05:57.818Z,7.80
2019-01-13T22:08:30.744Z,7.90
2019-01-13T22:11:01.028Z,7.90
2019-01-13T22:13:46.650Z,7.90
2019-01-13T22:16:27.069Z,7.90
2019-01-13T22:19:03.544Z,7.90
2019-01-13T22:21:36.073Z,7.90
2019-01-13T22:24:14.437Z,7.90
2019-01-13T22:26:54.144Z,7.90
2019-01-13T22:30:11.171Z,7.90
2019-01-13T22:32:54.079Z,7.90
2019-01-13T22:35:34.424Z,8.00
2019-01-13T22:38:10.603Z,8.00
2019-01-13T22:40:54.224Z,8.00
2019-01-13T22:43:56.806Z,8.00
2019-01-13T22:46:28.512Z,8.00
2019-01-13T22:49:11.818Z,8.00
2019-01-13T22:51:51.891Z,8.10
2019-01-13T22:54:33.038Z,8.10
2019-01-13T22:57:05.393Z,8.10
2019-01-13T22:59:38.375Z,8.10
2019-01-13T23:02:08.898Z,8.10
2019-01-13T23:04:43.835Z,8.10
2019-01-13T23:07:23.205Z,8.20
2019-01-13T23:09:55.504Z,8.20
2019-01-13T23:12:40.906Z,8.20
2019-01-13T23:15:11.514Z,8.20
2019-01-13T23:17:46.077Z,8.10
2019-01-13T23:20:19.691Z,8.10
2019-01-13T23:22:50.166Z,8.10
2019-01-13T23:25:33.566Z,8.10
2019-01-13T23:28:11.987Z,8.10
2019-01-13T23:30:45.499Z,8.00
2019-01-13T23:33:18.782Z,8.00
2019-01-13T23:35:52.881Z,8.00
2019-01-13T23:38:24.788Z,8.00
2019-01-13T23:40:55.589Z,8.00
2019-01-13T23:43:27.795Z,8.00
2019-01-13T23:46:01.849Z,8.00
2019-01-13T23:48:32.753Z,7.90
2019-01-13T23:51:03.277Z,7.90
2019-01-13T23:53:37.723Z,7.90
2019-01-13T23:56:13.397Z,7.90
2019-01-13T23:58:45.861Z,7.90
